Latest Coastal Weather Observations for Geelong Racecourse

IDV60701

Issued at 9:45 pm EST Thursday 17 April 2014 (issued every 10 minutes, with the page automatically refreshed every 10 minutes)

About coastal observations | Map of coastal stations | Coastal observations for VIC | Marine services | Other Formats
Station Details ID: 087184 Name: GEELONG RACECOURSE Lat: -38.17 Lon: 144.38 Height: 12.9 m
Data from the previous 72 hours. | See also: Recent months at Geelong Racecourse
Date/Time
EST
Temp

°C
Wind Pressure Rain
since 9am
mm
Weather Cloud Vis
km
Sea
Height
m
Swell
Dir
 
Speed
knots
Gust
knots
hPa Trend Height
m
Period
s
Dir
17/09:30pm 14.3 SW 4 5 1018.2 - 0.0 - - - - - - -
17/09:00pm 14.2 SSW 4 5 1018.1 - 0.0 - - - - - - -
17/08:30pm 14.7 SW 5 10 1018.0 - 0.0 - - - - - - -
17/08:00pm 15.7 CALM 0 2 1017.7 - 0.0 - - - - - - -
17/07:30pm 16.5 CALM 0 1 1017.7 - 0.0 - - - - - - -
17/07:00pm 16.9 CALM 0 0 1017.7 - 0.0 - - - - - - -
17/06:30pm 17.4 NE 1 2 1017.7 - 0.0 - - - - - - -
17/06:00pm 18.2 NE 2 4 1017.7 - 0.0 - - - - - - -
17/05:30pm 19.2 NE 2 3 1017.5 - 0.0 - - - - - - -
17/05:00pm 19.7 NE 6 9 1017.4 - 0.0 - - - - - - -
17/04:30pm 20.9 NNE 4 6 1017.4 - 0.0 - - - - - - -
17/04:00pm 21.9 ENE 3 5 1017.5 - 0.0 - - - - - - -
17/03:30pm 22.1 NE 4 6 1017.8 - 0.0 - - - - - - -
17/03:00pm 22.7 NE 6 8 1017.9 - 0.0 - - - - - - -
17/02:30pm 22.6 N 3 6 1018.1 - 0.0 - - - - - - -
17/02:00pm 23.3 WNW 4 8 1018.4 - 0.0 - - - - - - -
17/01:30pm 23.1 WNW 5 10 1018.8 - 0.0 - - - - - - -
17/01:00pm 22.7 WNW 5 9 1019.2 - 0.0 - - - - - - -
17/12:30pm 22.0 N 3 7 1019.6 - 0.0 - - - - - - -
17/12:00pm 21.8 NW 2 4 1020.0 - 0.0 - - - - - - -
17/11:30am 20.3 N 2 5 1020.4 - 0.0 - - - - - - -
17/11:00am 19.4 N 3 5 1020.5 - 0.0 - - - - - - -
17/10:30am 18.6 NNW 2 4 1020.7 - 0.0 - - - - - - -
17/10:00am 17.4 NW 2 3 1020.8 - 0.0 - - - - - - -
17/09:30am 15.9 NNW 3 4 1021.0 - 0.0 - - - - - - -
17/09:00am 14.3 NW 2 3 1021.1 - 0.0 - - - - - - -
17/08:30am 12.9 NW 3 5 1021.0 - 0.0 - - - - - - -
17/08:00am 11.0 CALM 0 0 1020.9 - 0.0 - - - - - - -
17/07:30am 9.2 CALM 0 0 1020.4 - 0.0 - - - - - - -
17/07:00am 8.9 CALM 0 1 1020.2 - 0.0 - - - - - - -
17/06:30am 8.8 NW 3 7 1020.1 - 0.0 - - - - - - -
17/06:00am 9.0 WNW 1 2 1019.9 - 0.0 - - - - - - -
17/05:30am 9.3 CALM 0 0 1019.8 - 0.0 - - - - - - -
17/05:00am 9.6 WNW 3 5 1019.9 - 0.0 - - - - - - -
17/04:30am 9.3 W 3 4 1019.7 - 0.0 - - - - - - -
17/04:00am 9.7 WNW 1 3 1019.4 - 0.0 - - - - - - -
17/03:30am 9.7 WNW 1 2 1019.4 - 0.0 - - - - - - -
17/03:00am 10.0 W 0 0 1019.5 - 0.0 - - - - - - -
17/02:30am 10.2 CALM 0 0 1019.4 - 0.0 - - - - - - -
17/02:00am 10.8 W 1 2 1019.5 - 0.0 - - - - - - -
17/01:30am 10.8 W 2 3 1019.6 - 0.0 - - - - - - -
17/01:00am 11.4 WNW 2 3 1019.5 - 0.0 - - - - - - -
17/12:30am 11.5 WNW 3 4 1019.5 - 0.0 - - - - - - -
17/12:00am 12.2 N 2 3 1019.4 - 0.0 - - - - - - -
 
Date/Time
EST
Temp

°C
Wind Pressure Rain
since 9am
mm
Weather Cloud Vis
km
Sea
Height
m
Swell
Dir
 
Speed
knots
Gust
knots
hPa Trend Height
m
Period
s
Dir
16/11:30pm 12.3 NW 3 3 1019.9 - 0.0 - - - - - - -
16/11:00pm 11.2 W 2 3 1020.0 - 0.0 - - - - - - -
16/10:30pm 11.8 CALM 0 1 1019.7 - 0.0 - - - - - - -
16/10:00pm 11.9 W 2 3 1019.8 - 0.0 - - - - - - -
16/09:30pm 12.4 CALM 0 0 1019.8 - 0.0 - - - - - - -
16/09:00pm 13.3 CALM 0 0 1019.7 - 0.0 - - - - - - -
16/08:30pm 13.6 CALM 0 0 1019.5 - 0.0 - - - - - - -
16/08:00pm 14.2 CALM 0 0 1019.6 - 0.0 - - - - - - -
16/07:30pm 14.5 CALM 0 0 1019.6 - 0.0 - - - - - - -
16/07:00pm 15.3 CALM 0 0 1019.4 - 0.0 - - - - - - -
16/06:30pm 15.5 SW 1 2 1019.2 - 0.0 - - - - - - -
16/06:00pm 16.5 WSW 2 3 1019.0 - 0.0 - - - - - - -
16/05:30pm 17.3 W 4 5 1018.9 - 0.0 - - - - - - -
16/05:00pm 17.9 WSW 5 7 1018.8 - 0.0 - - - - - - -
16/04:30pm 19.1 W 6 9 1018.7 - 0.0 - - - - - - -
16/04:00pm 19.1 WSW 7 10 1018.6 - 0.0 - - - - - - -
16/03:30pm 19.3 NW 4 6 1018.4 - 0.0 - - - - - - -
16/03:00pm 19.7 NNW 2 4 1018.5 - 0.0 - - - - - - -
16/02:30pm 19.0 N 2 3 1018.6 - 0.0 - - - - - - -
16/02:00pm 19.3 N 3 7 1018.6 - 0.0 - - - - - - -
16/01:30pm 19.0 NNE 3 6 1018.7 - 0.0 - - - - - - -
16/01:00pm 19.1 NNE 2 4 1019.0 - 0.0 - - - - - - -
16/12:30pm 17.7 NE 2 5 1019.5 - 0.0 - - - - - - -
16/12:00pm 17.0 N 3 4 1019.9 - 0.0 - - - - - - -
16/11:30am 16.9 N 4 6 1020.2 - 0.0 - - - - - - -
16/11:00am 16.7 NE 4 6 1020.3 - 0.0 - - - - - - -
16/10:30am 15.9 N 4 6 1020.5 - 0.0 - - - - - - -
16/10:00am 15.4 NNW 3 4 1020.7 - 0.0 - - - - - - -
16/09:30am 14.9 W 2 3 1021.0 - 0.0 - - - - - - -
16/09:00am 13.9 WNW 1 3 1021.1 - - - - - - - - -
16/08:30am 12.1 WNW 4 5 1021.2 - - - - - - - - -
16/08:00am 11.1 NW 4 6 1021.0 - - - - - - - - -
16/07:30am 9.4 WNW 3 4 1020.8 - - - - - - - - -
16/07:00am 9.2 WNW 2 3 1020.4 - - - - - - - - -
16/06:30am 9.3 W 2 3 1020.5 - - - - - - - - -
16/06:00am 9.3 WSW 2 3 1020.4 - - - - - - - - -
16/05:30am 9.8 WSW 1 2 1020.5 - - - - - - - - -
16/05:00am 9.8 SW 1 2 1020.7 - - - - - - - - -
16/04:30am 10.1 SW 2 3 1020.7 - - - - - - - - -
16/04:00am 10.3 SW 2 2 1020.6 - - - - - - - - -
16/03:30am 10.2 SW 2 2 1020.4 - - - - - - - - -
16/03:00am 10.4 S 2 2 1020.5 - 0.0 - - - - - - -
16/02:30am 11.4 S 3 4 1020.6 - - - - - - - - -
16/02:00am 11.0 S 4 5 1021.2 - - - - - - - - -
16/01:30am 11.7 S 2 3 1021.6 - - - - - - - - -
16/01:00am 11.9 SSW 1 2 1021.9 - - - - - - - - -
16/12:30am 12.5 SSW 2 2 1022.1 - - - - - - - - -
16/12:00am 12.5 SSW 3 4 1022.4 - - - - - - - - -
 
Date/Time
EST
Temp

°C
Wind Pressure Rain
since 9am
mm
Weather Cloud Vis
km
Sea
Height
m
Swell
Dir
 
Speed
knots
Gust
knots
hPa Trend Height
m
Period
s
Dir
15/11:30pm 13.8 S 3 4 1022.4 - - - - - - - - -
15/11:00pm 14.7 SSE 2 4 1022.6 - - - - - - - - -
15/10:30pm 14.9 SSE 3 5 1022.8 - - - - - - - - -
15/10:00pm 14.9 S 3 4 1023.1 - - - - - - - - -
15/09:30pm 15.2 S 3 4 1023.4 - - - - - - - - -
15/09:00pm 15.4 S 4 6 1023.3 - - - - - - - - -
15/08:30pm 15.6 S 5 7 1023.2 - - - - - - - - -
15/08:00pm 15.4 S 6 8 1023.1 - - - - - - - - -
15/07:30pm 15.4 SSE 5 8 1023.2 - - - - - - - - -
15/07:00pm 15.6 S 6 8 1023.1 - - - - - - - - -
15/06:30pm 15.8 S 6 9 1022.8 - - - - - - - - -
15/06:00pm 16.1 S 6 9 1022.7 - - - - - - - - -
15/05:30pm 16.5 S 8 12 1022.4 - - - - - - - - -
15/05:00pm 16.8 S 9 13 1022.3 - - - - - - - - -
15/11:30am 18.6 SSE 11 14 1023.9 - 0.0 - - - - - - -
15/11:00am 18.4 ESE 8 13 1024.0 - 0.0 - - - - - - -
15/10:30am 17.2 SE 9 13 1024.1 - 0.0 - - - - - - -
15/10:00am 16.9 SE 8 12 1024.2 - 0.0 - - - - - - -
15/09:30am 17.1 SE 5 9 1024.3 - 0.0 - - - - - - -
15/09:00am 16.9 SE 4 5 1024.3 - 0.0 - - - - - - -
15/08:30am 15.3 SE 1 3 1024.3 - 0.0 - - - - - - -
15/08:00am 14.0 CALM 0 0 1024.2 - 0.0 - - - - - - -
15/07:30am 12.4 CALM 0 1 1024.0 - 0.0 - - - - - - -
15/07:00am 11.3 WSW 1 2 1023.7 - 0.0 - - - - - - -
15/06:30am 11.0 WSW 1 2 1023.5 - 0.0 - - - - - - -
15/06:00am 10.9 WSW 1 2 1023.4 - 0.0 - - - - - - -
15/05:30am 11.2 WSW 2 3 1023.3 - 0.0 - - - - - - -
15/05:00am 10.5 WSW 3 4 1023.2 - 0.0 - - - - - - -
15/04:30am 10.8 SW 2 4 1023.1 - 0.0 - - - - - - -
15/04:00am 11.5 WSW 1 3 1023.1 - 0.0 - - - - - - -
15/03:30am 11.6 CALM 0 0 1023.1 - 0.0 - - - - - - -
15/03:00am 12.7 CALM 0 0 1023.2 - 0.0 - - - - - - -
15/02:30am 13.1 CALM 0 0 1023.5 - 0.0 - - - - - - -
15/02:00am 14.3 S 3 4 1023.6 - 0.0 - - - - - - -
15/01:30am 14.6 S 4 5 1023.6 - 0.0 - - - - - - -
15/01:00am 14.9 SSE 3 4 1023.7 - 0.0 - - - - - - -
15/12:30am 15.2 S 4 5 1023.6 - 0.0 - - - - - - -
15/12:00am 15.2 SSE 4 7 1023.6 - 0.0 - - - - - - -
 
Date/Time
EST
Temp

°C
Wind Pressure Rain
since 9am
mm
Weather Cloud Vis
km
Sea
Height
m
Swell
Dir
 
Speed
knots
Gust
knots
hPa Trend Height
m
Period
s
Dir
14/11:30pm 14.3 S 3 5 1023.7 - 0.0 - - - - - - -
14/11:00pm 13.0 S 3 4 1023.9 - 0.0 - - - - - - -
14/10:30pm 12.6 SW 3 3 1024.2 - 0.0 - - - - - - -
14/10:00pm 13.0 S 4 4 1024.1 - 0.0 - - - - - - -

Other Formats:

Comma delimited format used in spreadsheet applications
http://www.bom.gov.au/fwo/IDV60701/IDV60701.94857.axf

JavaScript Object Notation format (JSON) in row-major order
http://www.bom.gov.au/fwo/IDV60701/IDV60701.94857.json